Stunt Ranch Reserve, Santa Monica Mtns, California Weather observations

Data are for 10 minute period ending at time listed.
 Day   Time   Solar   Ave.   Ave.  Ave.  Vector  Max.   Baro.   Total    
  of    of     Rad.   Air    Rel.  Wind   Wind   Wind  Press.  Precip.   
Year   Day            Temp.  Hum.  Speed  Dir.   Gust                    
2016   (PST)  Kw/m2    F      %     mph   deg.    mph    mb.     in.     
-------------------------------------------------------------------------
 208    2:10   0.00   69.9    42    0.2   106     1.4   967.2    0.00 
 208    2:20   0.00   69.9    42    0.0   165     0.8   967.2    0.00 
 208    2:30   0.00   69.9    42    1.2   155     2.3   967.2    0.00 
 208    2:40   0.00   70.2    41    0.5   124     1.7   967.2    0.00 
 208    2:50   0.00   70.0    40    0.7   286     1.9   967.2    0.00 
 208    3:00   0.00   70.3    39    1.0   288     1.5   967.2    0.00 
 208    3:10   0.00   70.1    40    0.3   273     1.2   967.2    0.00 
 208    3:20   0.00   69.9    41    0.5   194     1.8   966.8    0.00 
 208    3:30   0.00   69.6    41    0.2   258     1.2   966.8    0.00 
 208    3:40   0.00   69.4    42    0.6   198     2.3   967.2    0.00 
 208    3:50   0.00   69.4    42    1.2   231     2.3   966.8    0.00 
 208    4:00   0.00   69.0    42    0.5   246     2.1   966.8    0.00 
 208    4:10   0.00   68.9    42    1.6   154     2.6   966.8    0.00 
 208    4:20   0.00   68.5    42    2.3   134     3.8   966.8    0.00 
 208    4:30   0.00   69.3    41    0.6   354     1.6   966.8    0.00 
 208    4:40   0.00   69.4    42    1.9   275     2.7   966.8    0.00 
 208    4:50   0.00   69.3    45    0.7   300     1.9   966.8    0.00 
 208    5:00   0.00   69.1    47    1.1   298     2.6   967.2    0.00 
 208    5:10   0.01   68.4    48    0.5   267     1.8   967.2    0.00 
 208    5:20   0.01   68.7    52    1.1   233     1.5   967.2    0.00 
 208    5:30   0.01   68.6    50    0.5   276     1.4   967.2    0.00 
 208    5:40   0.02   68.8    49    0.1    63     0.7   967.2    0.00 
 208    5:50   0.03   68.9    49    0.0     0     0.0   967.2    0.00 
 208    6:00   0.06   69.2    51    0.1   340     0.7   967.2    0.00 
 208    6:10   0.12   72.5    45    0.1    73     0.6   967.2    0.00 
 208    6:20   0.15   75.1    40    0.7   104     2.3   967.2    0.00 
 208    6:30   0.18   75.7    37    1.6    80     2.8   967.2    0.00 
 208    6:40   0.22   75.7    40    1.0   359     2.0   967.2    0.00 
 208    6:50   0.25   76.7    40    0.7   305     1.5   967.2    0.00 
 208    7:00   0.28   77.3    40    1.2    40     3.3   966.8    0.00 
 208    7:10   0.32   77.9    40    1.3   346     3.0   966.8    0.00 
 208    7:20   0.35   79.4    40    1.1     4     2.9   966.8    0.00 
 208    7:30   0.38   80.9    38    1.6   308     3.2   966.8    0.00 
 208    7:40   0.42   81.0    38    1.5   322     2.9   966.8    0.00 
 208    7:50   0.45   82.1    36    1.5   304     2.9   966.8    0.00 
 208    8:00   0.48   82.9    35    2.0   310     3.5   966.8    0.00 
 208    8:10   0.51   84.2    34    1.8   300     3.7   966.8    0.00 
 208    8:20   0.54   86.4    32    2.4   292     4.6   966.8    0.00 
 208    8:30   0.57   87.9    30    2.2   293     4.9   966.8    0.00 
 208    8:40   0.60   88.5    27    1.9   293     4.1   967.2    0.00 
 208    8:50   0.63   89.6    25    2.6   298     5.6   967.2    0.00 
 208    9:00   0.66   91.4    23    3.2   302     6.9   967.2    0.00 
 208    9:10   0.69   93.2    21    3.1   293     6.3   967.2    0.00 
 208    9:20   0.71   93.8    21    3.0   298     5.7   967.2    0.00 
 208    9:30   0.74   94.4    20    3.4   290     7.2   967.2    0.00 
 208    9:40   0.77   96.4    18    3.3   292     7.3   967.5    0.00 
 208    9:50   0.79   97.2    18    3.4   293     8.0   967.5    0.00 
 208   10:00   0.81   97.9    18    3.0   296     6.4   967.5    0.00 
 208   10:10   0.83   97.8    16    3.8   299     6.8   967.5    0.00 
 208   10:20   0.84   98.0    14    3.4   302     7.5   967.5    0.00 
 208   10:30   0.86   98.9    14    3.4   300     7.9   967.2    0.00 
 208   10:40   0.88   99.7    15    3.7   290     8.1   967.2    0.00 
 208   10:50   0.89  100.2    16    3.9   289     8.4   967.2    0.00 
 208   11:00   0.90   99.2    17    4.1   313     8.0   967.2    0.00 
 208   11:10   0.90   98.2    17    3.4   298     7.4   967.2    0.00 
 208   11:20   0.92   97.6    18    3.7   296     8.9   967.2    0.00 
 208   11:30   0.92   98.3    19    3.7   299     7.7   967.2    0.00 
 208   11:40   0.93   98.0    20    4.0   310     8.0   967.2    0.00 
 208   11:50   0.93   98.1    19    3.7   288     7.6   967.2    0.00 
 208   12:00   0.93   98.5    18    3.8   301     9.6   966.8    0.00 
 208   12:10   0.93   97.4    17    3.4   302     8.4   966.8    0.00 
 208   12:20   0.93   97.9    16    3.4   320     8.4   966.8    0.00 
 208   12:30   0.92   99.0    14    4.0   308     8.3   966.8    0.00 
 208   12:40   0.92   98.9    14    3.7   310     9.7   966.8    0.00 
 208   12:50   0.91   99.7    13    4.1   316     8.3   966.5    0.00 
 208   13:00   0.86  100.9    13    4.2   313     8.4   966.5    0.00 
 208   13:10   0.89  102.7    13    3.0   294     9.1   966.5    0.00 
 208   13:20   0.88  103.2    12    3.0   286     9.3   966.5    0.00 
 208   13:30   0.86  103.1    14    3.9   292     9.7   966.1    0.00 
 208   13:40   0.85  102.8    15    3.5   293     9.2   966.1    0.00 
 208   13:50   0.83  102.2    17    3.7   301     8.1   966.1    0.00 
 208   14:00   0.81  101.6    17    3.7   306     8.6   966.1    0.00 
 208   14:10   0.79  102.4    17    2.9   294     8.9   965.8    0.00 
 208   14:20   0.77  101.7    17    3.0   299    10.4   965.8    0.00 
 208   14:30   0.75  101.7    17    3.8   298     9.3   965.8    0.00 
 208   14:40   0.73  100.9    18    3.3   300     8.1   965.5    0.00 
 208   14:50   0.70  100.5    18    3.8   299     9.2   965.5    0.00 
 208   15:00   0.68  100.0    18    3.6   301     8.8   965.5    0.00 
 208   15:10   0.65  100.7    17    3.4   295    10.5   965.5    0.00 
 208   15:20   0.62  101.2    17    4.0   294     8.9   965.5    0.00 
 208   15:30   0.59  100.9    17    3.9   297     9.7   965.1    0.00 
 208   15:40   0.57  101.2    17    3.7   289     9.3   965.1    0.00 
 208   15:50   0.54  101.3    16    3.6   290     9.0   965.1    0.00 
 208   16:00   0.51  101.2    17    3.2   294     9.2   965.1    0.00 
 208   16:10   0.47  101.1    17    3.8   293     8.6   965.1    0.00 
 208   16:20   0.44  100.5    16    3.4   292     9.0   965.1    0.00 
 208   16:30   0.41  100.8    15    3.0   294     7.5   965.1    0.00 
 208   16:40   0.38  100.4    15    3.1   289     8.8   965.5    0.00 
 208   16:50   0.35  100.2    14    3.2   296     8.3   965.5    0.00 
 208   17:00   0.31   99.8    13    3.7   307     7.5   965.1    0.00 
 208   17:10   0.28   99.2    15    2.6   288     8.0   965.1    0.00 
 208   17:20   0.25   99.1    15    2.4   283     6.9   965.1    0.00 
 208   17:30   0.21   98.0    13    3.7   307    10.2   965.1    0.00 
 208   17:40   0.18   96.9    14    3.1   307     9.4   965.5    0.00 
 208   17:50   0.15   94.6    14    2.2   307     7.7   965.5    0.00 
 208   18:00   0.12   92.8    15    1.9   300     6.6   965.5    0.00 
 208   18:10   0.09   91.3    16    1.9   302     7.5   965.5    0.00 
 208   18:20   0.03   90.1    16    1.2   312     4.0   965.5    0.00 
 208   18:30   0.03   89.0    16    1.4   301     4.4   965.5    0.00 
 208   18:40   0.02   87.8    16    1.0   294     4.4   965.5    0.00 
 208   18:50   0.01   86.6    17    1.0   295     3.9   965.5    0.00 
 208   19:00   0.01   85.7    18    0.6   301     3.0   965.5    0.00 
 208   19:10   0.00   84.7    17    0.8   350     3.7   965.1    0.00 
 208   19:20   0.00   83.7    17    0.9   257     2.3   965.1    0.00 
 208   19:30   0.00   82.7    18    1.5   243     2.9   965.1    0.00 
 208   19:40   0.00   82.4    18    1.1   252     2.8   965.1    0.00 
 208   19:50   0.00   82.0    18    1.6   222     2.9   965.1    0.00 
 208   20:00   0.00   81.4    19    1.9   231     2.6   965.1    0.00 
 208   20:10   0.00   80.8    19    1.1   256     2.3   965.5    0.00 
 208   20:20   0.00   80.3    20    1.8   252     3.0   965.5    0.00 
 208   20:30   0.00   80.3    20    0.5   262     1.8   965.5    0.00 
 208   20:40   0.00   79.8    20    0.1   216     0.9   965.8    0.00 
 208   20:50   0.00   79.6    20    0.4   282     1.5   965.8    0.00 
 208   21:00   0.00   79.4    20    0.3   261     0.9   965.8    0.00 
 208   21:10   0.00   79.1    20    0.1   293     0.9   965.8    0.00 
 208   21:20   0.00   79.1    21    0.2   322     1.5   966.1    0.00 
 208   21:30   0.00   78.7    21    0.1   248     0.9   966.1    0.00 
 208   21:40   0.00   78.2    22    1.1   289     2.1   966.1    0.00 
 208   21:50   0.00   77.6    22    1.6   278     2.5   966.1    0.00 
 208   22:00   0.00   77.5    22    0.6   277     1.5   966.1    0.00 
 208   22:10   0.00   77.3    23    0.1    37     0.9   965.8    0.00 
 208   22:20   0.00   77.2    23    0.7   147     1.5   966.1    0.00 
 208   22:30   0.00   76.9    23    1.8   191     2.5   965.8    0.00 
 208   22:40   0.00   77.0    22    1.0   304     1.8   965.8    0.00 
 208   22:50   0.00   76.7    23    1.1   302     1.8   966.1    0.00 
 208   23:00   0.00   76.6    23    0.9   261     2.3   966.1    0.00 
 208   23:10   0.00   76.3    23    0.4   235     1.6   966.1    0.00 
 208   23:20   0.00   76.0    23    1.0   203     2.0   966.1    0.00 
 208   23:30   0.00   75.8    24    1.3   308     1.8   966.1    0.00 
 208   23:40   0.00   75.3    25    1.4   262     3.0   966.1    0.00 
 208   23:50   0.00   75.1    25    0.4   103     1.4   966.1    0.00 
 209    0:00   0.00   75.1    24    0.3   171     0.9   966.1    0.00 
 209    0:10   0.00   75.1    23    0.3   166     1.7   966.1    0.00 
 209    0:20   0.00   75.1    22    0.4   174     1.7   966.1    0.00 
 209    0:30   0.00   75.3    23    0.8   196     2.6   966.1    0.00 
 209    0:40   0.00   74.5    24    1.6   275     3.1   966.1    0.00 
 209    0:50   0.00   73.6    25    1.3   256     2.3   966.1    0.00 
 209    1:00   0.00   73.9    26    2.0   255     2.6   966.1    0.00 
 209    1:10   0.00   74.2    28    1.1   257     1.9   965.8    0.00 
 209    1:20   0.00   73.8    28    0.1   201     1.1   965.8    0.00 
 209    1:30   0.00   73.6    28    0.6   349     2.2   965.8    0.00 
 209    1:40   0.00   73.1    28    0.2    31     1.2   965.8    0.00 
 209    1:50   0.00   72.6    28    0.4   250     1.0   965.8    0.00 
 209    2:00   0.00   72.8    28    0.6   180     1.5   965.8    0.00 

Return to Stunt Ranch Reserve graphs page.


Western Regional Climate Center,wrcc@dri.edu